createdAt,value
2019-04-21T00:00:39.852Z,53.03
2019-04-21T00:01:44.147Z,53.32
2019-04-21T00:03:39.838Z,53.32
2019-04-21T00:04:48.156Z,53.13
2019-04-21T00:07:03.274Z,53.22
2019-04-21T00:07:45.036Z,52.84
2019-04-21T00:09:40.041Z,53.22
2019-04-21T00:10:40.606Z,52.75
2019-04-21T00:12:29.856Z,53.03
2019-04-21T00:13:28.098Z,52.84
2019-04-21T00:15:16.086Z,52.75
2019-04-21T00:16:10.173Z,52.84
2019-04-21T00:18:02.467Z,53.32
2019-04-21T00:19:07.121Z,53.41
2019-04-21T00:20:55.206Z,53.22
2019-04-21T00:22:01.581Z,53.03
2019-04-21T00:24:00.391Z,53.22
2019-04-21T00:25:04.304Z,53.61
2019-04-21T00:26:58.992Z,53.70
2019-04-21T00:27:50.368Z,53.51
2019-04-21T00:29:49.704Z,53.89
2019-04-21T00:30:50.891Z,53.89
2019-04-21T00:32:36.885Z,53.70
2019-04-21T00:33:28.848Z,53.89
2019-04-21T00:35:22.227Z,53.77
2019-04-21T00:36:25.269Z,53.67
2019-04-21T00:38:34.584Z,53.96
2019-04-21T00:39:36.404Z,53.86
2019-04-21T00:41:25.995Z,54.15
2019-04-21T00:42:24.153Z,54.15
2019-04-21T00:44:08.733Z,54.82
2019-04-21T00:45:12.053Z,54.34
2019-04-21T00:47:01.829Z,54.44
2019-04-21T00:48:11.380Z,54.44
2019-04-21T00:50:05.234Z,54.63
2019-04-21T00:51:16.299Z,54.34
2019-04-21T00:54:04.014Z,54.25
2019-04-21T00:55:57.628Z,54.53
2019-04-21T00:56:56.719Z,54.72
2019-04-21T00:58:49.862Z,54.63
2019-04-21T00:59:46.365Z,54.53
2019-04-21T01:01:31.421Z,54.82
2019-04-21T01:02:41.631Z,54.72
2019-04-21T01:04:30.676Z,54.72
2019-04-21T01:05:28.286Z,55.01
2019-04-21T01:07:19.441Z,55.20
2019-04-21T01:08:19.863Z,54.63
2019-04-21T01:10:06.681Z,55.20
2019-04-21T01:11:17.865Z,55.20
2019-04-21T01:13:09.544Z,54.89
2019-04-21T01:14:16.631Z,54.89
2019-04-21T01:16:03.342Z,55.18
2019-04-21T01:17:06.816Z,54.79
2019-04-21T01:18:49.356Z,55.18
2019-04-21T01:19:49.137Z,55.94
2019-04-21T01:21:26.009Z,56.04
2019-04-21T01:22:26.067Z,55.46
2019-04-21T01:24:25.919Z,56.23
2019-04-21T01:25:28.211Z,55.27
2019-04-21T01:27:22.689Z,55.27
2019-04-21T01:28:29.067Z,55.27
2019-04-21T01:30:32.583Z,55.27
2019-04-21T01:31:23.785Z,55.46
2019-04-21T01:33:21.657Z,55.75
2019-04-21T01:34:23.304Z,55.46
2019-04-21T01:36:08.416Z,55.84
2019-04-21T01:37:03.968Z,55.84
2019-04-21T01:39:08.017Z,55.84
2019-04-21T01:40:08.452Z,55.94
2019-04-21T01:42:00.058Z,55.75
2019-04-21T01:42:58.024Z,55.46
2019-04-21T01:44:56.804Z,55.46
2019-04-21T01:45:49.181Z,55.84
2019-04-21T01:47:44.689Z,55.84
2019-04-21T01:48:39.134Z,55.75
2019-04-21T01:50:34.514Z,55.75
2019-04-21T01:51:36.956Z,55.94
2019-04-21T01:53:30.731Z,55.94
2019-04-21T01:54:33.258Z,56.23
2019-04-21T01:56:24.103Z,56.04
2019-04-21T01:57:17.619Z,55.84
2019-04-21T01:59:04.939Z,56.23
2019-04-21T02:00:06.257Z,56.51
2019-04-21T02:02:15.983Z,57.09
2019-04-21T02:03:28.520Z,57.24
2019-04-21T02:05:11.863Z,57.15
2019-04-21T02:06:07.695Z,57.15
2019-04-21T02:07:55.216Z,57.06
2019-04-21T02:08:54.987Z,57.34
2019-04-21T02:10:54.650Z,57.15
2019-04-21T02:11:50.858Z,57.24
2019-04-21T02:13:46.853Z,57.15
2019-04-21T02:14:47.382Z,57.15
2019-04-21T02:16:39.199Z,58.48
2019-04-21T02:17:34.255Z,58.48
2019-04-21T02:19:23.603Z,58.20
2019-04-21T02:20:18.235Z,58.58
2019-04-21T02:22:19.198Z,58.68
2019-04-21T02:23:34.664Z,58.20
2019-04-21T02:25:15.130Z,57.92
2019-04-21T02:26:21.154Z,58.68
2019-04-21T02:28:13.401Z,58.46
2019-04-21T02:29:08.458Z,58.58
2019-04-21T02:31:18.656Z,58.39
2019-04-21T02:32:10.553Z,58.39
2019-04-21T02:34:06.667Z,58.48
2019-04-21T02:37:07.429Z,58.20
2019-04-21T02:39:56.661Z,58.68
2019-04-21T02:42:46.617Z,58.58
2019-04-21T02:43:46.200Z,58.36
2019-04-21T02:46:37.969Z,58.39
2019-04-21T02:48:32.927Z,58.48
2019-04-21T02:49:35.370Z,58.26
2019-04-21T02:51:28.174Z,58.55
2019-04-21T02:55:06.308Z,57.24
2019-04-21T02:57:09.167Z,58.01
2019-04-21T02:58:06.140Z,58.01
2019-04-21T03:01:07.531Z,57.43
2019-04-21T03:03:55.025Z,58.65
2019-04-21T03:05:58.790Z,57.79
2019-04-21T03:06:59.397Z,58.46
2019-04-21T03:08:49.671Z,58.26
2019-04-21T03:09:36.578Z,58.46
2019-04-21T03:11:28.954Z,59.51
2019-04-21T03:14:40.848Z,59.22
2019-04-21T03:15:29.245Z,58.55
2019-04-21T03:17:22.306Z,58.26
2019-04-21T03:23:09.380Z,59.89
2019-04-21T03:26:07.297Z,60.36
2019-04-21T03:27:12.615Z,60.65
2019-04-21T03:29:57.093Z,60.84
2019-04-21T03:38:39.087Z,60.81
2019-04-21T03:40:18.712Z,61.10
2019-04-21T03:41:18.898Z,61.29
2019-04-21T03:43:20.288Z,61.96
2019-04-21T03:44:14.420Z,61.67
2019-04-21T03:46:12.064Z,62.43
2019-04-21T03:51:59.206Z,62.72
2019-04-21T03:53:09.672Z,62.43
2019-04-21T03:55:05.554Z,62.91
2019-04-21T03:57:57.362Z,63.00
2019-04-21T04:01:32.414Z,63.73
2019-04-21T04:03:42.202Z,64.31
2019-04-21T04:04:27.933Z,64.53
2019-04-21T04:06:20.509Z,64.59
2019-04-21T04:07:31.202Z,64.87
2019-04-21T04:09:18.632Z,64.59
2019-04-21T04:10:13.904Z,64.69
2019-04-21T04:12:06.587Z,65.36
2019-04-21T04:13:05.892Z,64.40
2019-04-21T04:15:03.053Z,65.26
2019-04-21T04:16:05.965Z,65.36
2019-04-21T04:17:49.809Z,63.64
2019-04-21T04:18:53.152Z,63.83
2019-04-21T04:21:03.070Z,65.64
2019-04-21T04:21:56.381Z,65.07
2019-04-21T04:23:47.371Z,64.69
2019-04-21T04:24:39.255Z,64.50
2019-04-21T04:26:33.592Z,64.31
2019-04-21T04:27:47.019Z,64.78
2019-04-21T04:30:29.642Z,65.07
2019-04-21T04:32:28.415Z,65.07
2019-04-21T04:33:34.405Z,64.59
2019-04-21T04:35:34.004Z,64.69
2019-04-21T04:36:24.355Z,64.59
2019-04-21T04:38:07.192Z,64.31
2019-04-21T04:39:22.074Z,64.50
2019-04-21T04:41:01.046Z,64.50
2019-04-21T04:42:04.427Z,64.02
2019-04-21T04:43:57.322Z,64.12
2019-04-21T04:47:47.320Z,63.73
2019-04-21T04:49:43.258Z,63.73
2019-04-21T04:50:43.390Z,63.73
2019-04-21T04:52:32.662Z,63.83
2019-04-21T04:53:40.126Z,63.83
2019-04-21T04:55:27.073Z,64.53
2019-04-21T04:56:18.295Z,64.78
2019-04-21T04:58:42.722Z,64.21
2019-04-21T05:04:06.364Z,63.86
2019-04-21T05:07:11.504Z,63.96
2019-04-21T05:08:01.630Z,63.67
2019-04-21T05:09:47.223Z,63.57
2019-04-21T05:10:57.489Z,64.05
2019-04-21T05:12:38.536Z,64.24
2019-04-21T05:13:51.156Z,63.96
2019-04-21T05:15:23.712Z,63.86
2019-04-21T05:16:43.140Z,63.86
2019-04-21T05:18:30.729Z,63.86
2019-04-21T05:19:24.488Z,63.86
2019-04-21T05:21:23.229Z,64.62
2019-04-21T05:23:59.839Z,64.24
2019-04-21T05:24:58.405Z,64.81
2019-04-21T05:26:52.893Z,63.86
2019-04-21T05:27:54.049Z,64.15
2019-04-21T05:29:56.772Z,63.86
2019-04-21T05:31:00.983Z,63.89
2019-04-21T05:32:45.099Z,63.99
2019-04-21T05:33:47.815Z,64.09
2019-04-21T05:35:37.306Z,63.89
2019-04-21T05:36:37.698Z,64.09
2019-04-21T05:38:27.274Z,64.09
2019-04-21T05:39:24.783Z,63.23
2019-04-21T05:41:11.072Z,63.60
2019-04-21T05:42:08.943Z,62.75
2019-04-21T05:44:19.338Z,62.84
2019-04-21T05:45:22.846Z,63.32
2019-04-21T05:47:26.553Z,63.42
2019-04-21T05:48:18.983Z,63.35
2019-04-21T05:49:59.518Z,62.78
2019-04-21T05:50:59.244Z,63.16
2019-04-21T05:52:47.647Z,62.97
2019-04-21T05:53:56.104Z,62.97
2019-04-21T05:55:51.756Z,62.88
2019-04-21T05:56:48.701Z,63.07
2019-04-21T05:58:40.877Z,62.11
2019-04-21T06:02:56.090Z,61.38
2019-04-21T06:04:41.602Z,61.38
2019-04-21T06:05:37.827Z,60.61
2019-04-21T06:07:23.118Z,60.07
2019-04-21T06:08:19.986Z,59.98
2019-04-21T06:10:12.641Z,60.01
2019-04-21T06:13:13.427Z,59.05
2019-04-21T06:14:10.829Z,58.32
2019-04-21T06:16:03.984Z,57.36
2019-04-21T06:17:01.626Z,56.91
2019-04-21T06:18:57.989Z,55.60
2019-04-21T06:19:58.988Z,55.73
2019-04-21T06:21:44.779Z,53.55
2019-04-21T06:24:42.212Z,49.41
2019-04-21T06:25:51.814Z,48.18
2019-04-21T06:27:44.325Z,46.81
2019-04-21T06:28:33.735Z,44.91
2019-04-21T06:30:28.508Z,44.89
2019-04-21T06:33:20.257Z,42.28
2019-04-21T06:34:16.720Z,42.40
2019-04-21T06:37:34.838Z,40.90
2019-04-21T06:40:17.737Z,41.68
2019-04-21T06:42:01.320Z,43.11
2019-04-21T06:43:16.323Z,43.03
2019-04-21T06:44:53.776Z,41.80
2019-04-21T06:46:10.959Z,41.99
2019-04-21T06:47:53.983Z,40.42
2019-04-21T06:48:49.344Z,40.05
2019-04-21T06:50:39.530Z,38.53
2019-04-21T06:51:38.465Z,38.02
2019-04-21T06:53:42.093Z,38.60
2019-04-21T06:54:35.233Z,39.74
2019-04-21T06:56:32.126Z,39.32
2019-04-21T06:57:23.182Z,38.08
2019-04-21T06:59:09.663Z,36.66
2019-04-21T07:00:13.486Z,36.30
2019-04-21T07:02:30.758Z,35.42
2019-04-21T07:03:17.123Z,36.08
2019-04-21T07:05:07.842Z,35.99
2019-04-21T07:06:06.999Z,36.15
2019-04-21T07:08:07.724Z,36.49
2019-04-21T07:09:06.371Z,35.83
2019-04-21T07:10:46.325Z,35.25
2019-04-21T07:11:43.974Z,35.52
2019-04-21T07:13:41.583Z,36.33
2019-04-21T07:16:38.626Z,33.92
2019-04-21T07:17:37.629Z,34.51
2019-04-21T07:19:40.973Z,34.43
2019-04-21T07:20:21.752Z,33.88
2019-04-21T07:22:24.731Z,33.15
2019-04-21T07:23:28.500Z,31.92
2019-04-21T07:25:18.641Z,31.51
2019-04-21T07:26:16.018Z,31.04
2019-04-21T07:28:07.440Z,31.98
2019-04-21T07:29:07.919Z,32.02
2019-04-21T07:31:03.767Z,31.01
2019-04-21T07:34:51.776Z,30.11
2019-04-21T07:36:52.628Z,29.07
2019-04-21T07:37:48.101Z,28.75
2019-04-21T07:39:35.760Z,28.50
2019-04-21T07:40:36.530Z,28.69
2019-04-21T07:42:24.063Z,28.22
2019-04-21T07:43:25.929Z,28.53
2019-04-21T07:45:17.986Z,27.08
2019-04-21T07:46:17.199Z,27.08
2019-04-21T07:48:18.941Z,27.40
2019-04-21T07:49:15.537Z,26.33
2019-04-21T07:51:11.128Z,26.51
2019-04-21T07:52:11.347Z,27.10
2019-04-21T07:54:26.903Z,26.57
2019-04-21T07:55:05.938Z,27.33
2019-04-21T07:56:40.623Z,28.54
2019-04-21T07:57:52.655Z,29.79
2019-04-21T08:00:01.204Z,30.07
2019-04-21T08:00:49.541Z,30.01
2019-04-21T08:02:40.649Z,32.70
2019-04-21T08:03:39.903Z,31.70
2019-04-21T08:05:35.539Z,30.05
2019-04-21T08:06:43.702Z,29.97
2019-04-21T08:08:26.853Z,29.42
2019-04-21T08:09:29.459Z,29.21
2019-04-21T08:11:24.342Z,28.15
2019-04-21T08:12:14.498Z,28.63
2019-04-21T08:14:16.995Z,29.86
2019-04-21T08:15:21.755Z,29.02
2019-04-21T08:17:09.828Z,28.74
2019-04-21T08:18:07.074Z,28.80
2019-04-21T08:19:53.712Z,29.61
2019-04-21T08:21:02.465Z,28.89
2019-04-21T08:23:02.535Z,29.47
2019-04-21T08:23:48.583Z,30.04
2019-04-21T08:25:56.290Z,30.24
2019-04-21T08:27:06.283Z,29.86
2019-04-21T08:28:42.705Z,30.04
2019-04-21T08:29:40.826Z,29.97
2019-04-21T08:31:46.396Z,28.75
2019-04-21T08:32:49.637Z,28.54
2019-04-21T08:34:28.363Z,30.00
2019-04-21T08:37:18.251Z,28.82
2019-04-21T08:38:20.354Z,29.47
2019-04-21T08:40:15.766Z,31.29
2019-04-21T08:41:14.945Z,31.35
2019-04-21T08:42:59.982Z,32.31
2019-04-21T08:44:02.318Z,32.04
2019-04-21T08:46:13.010Z,32.08
2019-04-21T08:46:58.904Z,31.50
2019-04-21T08:49:06.244Z,31.13
2019-04-21T08:49:47.521Z,30.18
2019-04-21T08:51:50.702Z,29.46
2019-04-21T08:52:49.270Z,28.64
2019-04-21T08:54:36.771Z,29.96
2019-04-21T08:55:42.966Z,30.29
2019-04-21T08:57:39.639Z,27.01
2019-04-21T08:58:39.500Z,25.84
2019-04-21T09:00:29.246Z,26.12
2019-04-21T09:01:23.799Z,26.21
2019-04-21T09:03:19.554Z,26.29
2019-04-21T09:04:13.281Z,26.60
2019-04-21T09:06:17.567Z,27.83
2019-04-21T09:09:08.187Z,27.65
2019-04-21T09:10:02.829Z,27.73
2019-04-21T09:11:54.889Z,27.65
2019-04-21T09:12:54.751Z,28.08
2019-04-21T09:14:51.251Z,30.26
2019-04-21T09:15:41.916Z,31.58
2019-04-21T09:17:32.904Z,33.86
2019-04-21T09:18:33.734Z,34.43
2019-04-21T09:20:43.983Z,36.49
2019-04-21T09:21:31.337Z,36.68
2019-04-21T09:23:26.113Z,37.04
2019-04-21T09:24:31.539Z,37.79
2019-04-21T09:26:18.602Z,39.03
2019-04-21T09:27:15.814Z,39.80
2019-04-21T09:29:04.369Z,39.99
2019-04-21T09:30:00.312Z,40.17
2019-04-21T09:31:48.489Z,40.77
2019-04-21T09:32:49.476Z,41.83
2019-04-21T09:34:43.815Z,41.83
2019-04-21T09:35:47.466Z,40.09
2019-04-21T09:37:45.754Z,42.89
2019-04-21T09:38:38.306Z,42.21
2019-04-21T09:40:32.683Z,40.84
2019-04-21T09:41:27.802Z,41.42
2019-04-21T09:43:31.724Z,41.44
2019-04-21T09:44:25.443Z,42.00
2019-04-21T09:46:12.248Z,43.26
2019-04-21T09:47:13.445Z,42.41
2019-04-21T09:49:08.593Z,42.39
2019-04-21T09:50:06.611Z,43.16
2019-04-21T09:51:58.379Z,42.10
2019-04-21T09:53:05.415Z,41.52
2019-04-21T09:55:00.881Z,41.73
2019-04-21T09:55:58.226Z,41.93
2019-04-21T09:57:50.053Z,42.79
2019-04-21T09:58:49.765Z,42.58
2019-04-21T10:00:46.146Z,43.64
2019-04-21T10:01:50.084Z,42.10
2019-04-21T10:03:37.079Z,42.58
2019-04-21T10:04:31.131Z,42.41
2019-04-21T10:06:23.833Z,42.79
2019-04-21T10:07:31.057Z,41.23
2019-04-21T10:09:19.737Z,40.77
2019-04-21T10:10:17.252Z,40.07
2019-04-21T10:12:09.910Z,40.17
2019-04-21T10:13:10.632Z,40.44
2019-04-21T10:15:04.203Z,40.96
2019-04-21T10:16:03.161Z,41.15
2019-04-21T10:17:56.160Z,40.28
2019-04-21T10:18:56.777Z,40.57
2019-04-21T10:20:49.221Z,38.16
2019-04-21T10:21:50.141Z,39.12
2019-04-21T10:23:42.132Z,38.64
2019-04-21T10:24:42.475Z,40.38
2019-04-21T10:26:35.604Z,37.37
2019-04-21T10:27:35.234Z,38.53
2019-04-21T10:29:30.923Z,38.64
2019-04-21T10:30:28.730Z,39.32
2019-04-21T10:32:23.447Z,37.19
2019-04-21T10:33:22.044Z,37.10
2019-04-21T10:35:15.010Z,35.74
2019-04-21T10:36:15.187Z,34.38
2019-04-21T10:38:20.494Z,34.29
2019-04-21T10:39:07.494Z,33.81
2019-04-21T10:41:01.368Z,35.26
2019-04-21T10:42:01.507Z,36.52
2019-04-21T10:43:53.582Z,34.08
2019-04-21T10:44:54.744Z,34.28
2019-04-21T10:46:48.400Z,36.42
2019-04-21T10:47:47.194Z,37.00
2019-04-21T10:49:40.282Z,38.74
2019-04-21T10:50:41.068Z,37.87
2019-04-21T10:52:34.767Z,37.75
2019-04-21T10:53:32.819Z,37.46
2019-04-21T10:55:41.487Z,38.43
2019-04-21T10:56:31.491Z,38.04
2019-04-21T10:58:20.291Z,37.56
2019-04-21T10:59:20.332Z,37.48
2019-04-21T11:01:12.747Z,38.45
2019-04-21T11:02:12.791Z,38.45
2019-04-21T11:04:07.555Z,39.51
2019-04-21T11:05:05.108Z,39.12
2019-04-21T11:07:06.783Z,36.82
2019-04-21T11:08:09.998Z,36.44
2019-04-21T11:09:51.844Z,36.82
2019-04-21T11:10:51.945Z,35.86
2019-04-21T11:12:44.734Z,36.63
2019-04-21T11:13:44.388Z,35.76
2019-04-21T11:15:37.327Z,36.63
2019-04-21T11:16:37.373Z,36.53
2019-04-21T11:18:31.517Z,37.10
2019-04-21T11:19:30.783Z,38.54
2019-04-21T11:21:24.918Z,39.22
2019-04-21T11:22:25.101Z,38.45
2019-04-21T11:24:18.155Z,38.74
2019-04-21T11:25:17.859Z,37.67
2019-04-21T11:27:10.952Z,38.54
2019-04-21T11:28:11.171Z,38.74
2019-04-21T11:30:03.281Z,39.43
2019-04-21T11:31:04.729Z,38.46
2019-04-21T11:32:57.163Z,37.98
2019-04-21T11:33:57.449Z,37.88
2019-04-21T11:35:49.401Z,38.58
2019-04-21T11:36:50.225Z,37.90
2019-04-21T11:38:57.121Z,36.74
2019-04-21T11:39:51.935Z,36.84
2019-04-21T11:41:36.278Z,36.24
2019-04-21T11:42:37.703Z,37.21
2019-04-21T11:44:29.243Z,36.34
2019-04-21T11:45:30.578Z,36.24
2019-04-21T11:49:04.158Z,38.37
2019-04-21T11:50:03.402Z,37.79
2019-04-21T11:51:56.510Z,38.00
2019-04-21T11:52:56.881Z,37.32
2019-04-21T11:54:49.347Z,36.55
2019-04-21T11:55:51.780Z,36.74
2019-04-21T11:57:46.348Z,36.94
2019-04-21T11:58:43.812Z,36.55
2019-04-21T12:00:35.846Z,38.56
2019-04-21T12:01:35.965Z,37.02
2019-04-21T12:03:29.504Z,37.04
2019-04-21T12:04:29.542Z,38.00
2019-04-21T12:06:30.855Z,36.44
2019-04-21T12:07:22.855Z,36.92
2019-04-21T12:09:14.864Z,37.12
2019-04-21T12:10:23.758Z,36.92
2019-04-21T12:12:09.780Z,39.53
2019-04-21T12:13:08.334Z,39.06
2019-04-21T12:15:01.952Z,37.32
2019-04-21T12:16:03.128Z,36.46
2019-04-21T12:17:56.346Z,35.88
2019-04-21T12:18:54.658Z,35.47
2019-04-21T12:20:47.397Z,34.70
2019-04-21T12:22:00.397Z,35.66
2019-04-21T12:23:42.609Z,35.29
2019-04-21T12:24:40.634Z,35.49
2019-04-21T12:26:34.230Z,33.15
2019-04-21T12:29:30.689Z,31.70
2019-04-21T12:30:33.611Z,33.15
2019-04-21T12:32:24.152Z,33.36
2019-04-21T12:33:24.359Z,33.65
2019-04-21T12:35:17.660Z,34.33
2019-04-21T12:36:17.860Z,34.70
2019-04-21T12:38:10.947Z,35.10
2019-04-21T12:39:10.711Z,34.81
2019-04-21T12:41:04.512Z,33.84
2019-04-21T12:42:04.619Z,32.29
2019-04-21T12:43:56.957Z,28.23
2019-04-21T12:44:57.252Z,28.43
2019-04-21T12:46:49.821Z,29.88
2019-04-21T12:47:50.693Z,29.20
2019-04-21T12:49:43.699Z,29.28
2019-04-21T12:50:43.722Z,28.81
2019-04-21T12:52:35.706Z,28.61
2019-04-21T12:53:35.902Z,28.43
2019-04-21T12:55:31.549Z,29.86
2019-04-21T12:56:29.482Z,29.77
2019-04-21T12:58:21.621Z,26.77
2019-04-21T12:59:21.614Z,26.19
2019-04-21T13:01:14.721Z,28.13
2019-04-21T13:02:15.974Z,28.41
2019-04-21T13:04:08.168Z,28.22
2019-04-21T13:05:07.745Z,27.85
2019-04-21T13:07:01.474Z,29.88
2019-04-21T13:08:01.622Z,29.78
2019-04-21T13:09:54.613Z,28.81
2019-04-21T13:10:53.996Z,28.92
2019-04-21T13:12:48.005Z,29.12
2019-04-21T13:13:48.095Z,28.04
2019-04-21T13:15:39.978Z,27.36
2019-04-21T13:16:41.174Z,28.31
2019-04-21T13:18:33.287Z,29.59
2019-04-21T13:19:33.518Z,29.78
2019-04-21T13:21:26.096Z,31.13
2019-04-21T13:22:26.135Z,30.75
2019-04-21T13:24:19.966Z,29.59
2019-04-21T13:25:20.077Z,29.88
2019-04-21T13:27:12.752Z,29.69
2019-04-21T13:28:12.563Z,29.39
2019-04-21T13:30:06.330Z,28.91
2019-04-21T13:31:06.482Z,29.30
2019-04-21T13:32:58.930Z,29.69
2019-04-21T13:33:59.833Z,28.43
2019-04-21T13:35:53.015Z,29.20
2019-04-21T13:36:51.773Z,29.97
2019-04-21T13:39:09.633Z,29.10
2019-04-21T13:40:09.993Z,29.97
2019-04-21T13:41:49.414Z,29.30
2019-04-21T13:42:42.640Z,29.59
2019-04-21T13:44:30.944Z,30.07
2019-04-21T13:45:32.055Z,30.85
2019-04-21T13:47:24.803Z,30.07
2019-04-21T13:48:24.399Z,32.20
2019-04-21T13:50:17.348Z,32.60
2019-04-21T13:51:17.538Z,32.21
2019-04-21T13:53:09.786Z,32.41
2019-04-21T13:54:09.823Z,31.23
2019-04-21T13:56:02.860Z,32.20
2019-04-21T13:57:02.924Z,31.33
2019-04-21T13:58:56.016Z,32.68
2019-04-21T13:59:57.106Z,32.97
2019-04-21T14:01:49.789Z,31.71
2019-04-21T14:02:49.086Z,31.23
2019-04-21T14:04:43.223Z,31.23
2019-04-21T14:05:42.457Z,30.94
2019-04-21T14:07:36.348Z,30.94
2019-04-21T14:08:35.156Z,31.33
2019-04-21T14:10:29.250Z,32.49
2019-04-21T14:11:29.275Z,31.52
2019-04-21T14:13:22.306Z,31.04
2019-04-21T14:14:21.295Z,32.01
2019-04-21T14:16:14.312Z,30.94
2019-04-21T14:17:15.068Z,30.85
2019-04-21T14:19:07.683Z,30.07
2019-04-21T14:20:07.430Z,31.52
2019-04-21T14:22:01.172Z,32.49
2019-04-21T14:23:13.234Z,31.13
2019-04-21T14:24:54.118Z,31.23
2019-04-21T14:25:53.551Z,31.25
2019-04-21T14:27:49.067Z,30.65
2019-04-21T14:28:47.208Z,31.04
2019-04-21T14:30:40.718Z,29.97
2019-04-21T14:31:40.225Z,31.52
2019-04-21T14:33:33.847Z,29.88
2019-04-21T14:34:34.012Z,29.69
2019-04-21T14:36:26.557Z,29.09
2019-04-21T14:37:26.558Z,29.30
2019-04-21T14:39:18.797Z,29.49
2019-04-21T14:40:23.996Z,30.27
2019-04-21T14:42:11.997Z,29.30
2019-04-21T14:43:12.047Z,29.01
2019-04-21T14:45:05.071Z,29.39
2019-04-21T14:46:06.365Z,29.97
2019-04-21T14:47:58.961Z,28.80
2019-04-21T14:48:59.254Z,29.20
2019-04-21T14:50:52.379Z,29.78
2019-04-21T14:51:51.140Z,29.78
2019-04-21T14:53:44.160Z,30.65
2019-04-21T14:54:44.640Z,28.62
2019-04-21T14:56:37.458Z,29.78
2019-04-21T14:57:37.261Z,30.55
2019-04-21T14:59:31.095Z,29.78
2019-04-21T15:00:31.268Z,29.78
2019-04-21T15:02:23.317Z,29.78
2019-04-21T15:03:23.688Z,29.30
2019-04-21T15:05:17.496Z,29.19
2019-04-21T15:06:16.438Z,28.41
2019-04-21T15:08:09.439Z,28.89
2019-04-21T15:09:09.520Z,28.61
2019-04-21T15:11:03.236Z,29.86
2019-04-21T15:12:02.599Z,29.77
2019-04-21T15:13:55.957Z,29.96
2019-04-21T15:14:56.000Z,30.63
2019-04-21T15:16:49.036Z,29.88
2019-04-21T15:17:49.445Z,30.27
2019-04-21T15:19:42.841Z,29.49
2019-04-21T15:20:42.786Z,29.97
2019-04-21T15:22:34.802Z,30.75
2019-04-21T15:23:36.119Z,30.27
2019-04-21T15:25:28.002Z,28.91
2019-04-21T15:26:28.442Z,29.38
2019-04-21T15:28:22.007Z,29.97
2019-04-21T15:29:20.947Z,30.25
2019-04-21T15:31:21.848Z,29.77
2019-04-21T15:32:14.892Z,31.31
2019-04-21T15:34:07.423Z,30.75
2019-04-21T15:35:07.076Z,30.75
2019-04-21T15:37:00.076Z,31.23
2019-04-21T15:38:00.138Z,31.04
2019-04-21T15:39:53.161Z,31.13
2019-04-21T15:40:57.071Z,29.96
2019-04-21T15:42:46.542Z,31.12
2019-04-21T15:43:46.751Z,31.89
2019-04-21T15:45:39.289Z,31.31
2019-04-21T15:46:39.891Z,31.80
2019-04-21T15:48:33.079Z,31.70
2019-04-21T15:49:42.134Z,31.23
2019-04-21T15:51:25.969Z,32.39
2019-04-21T15:52:25.522Z,32.59
2019-04-21T15:54:18.560Z,31.71
2019-04-21T15:55:18.887Z,32.59
2019-04-21T15:57:13.952Z,32.68
2019-04-21T15:58:12.326Z,32.59
2019-04-21T16:00:04.712Z,32.78
2019-04-21T16:01:04.849Z,32.97
2019-04-21T16:02:58.373Z,33.34
2019-04-21T16:04:00.423Z,33.17
2019-04-21T16:05:50.856Z,31.22
2019-04-21T16:06:50.769Z,31.12
2019-04-21T16:08:47.624Z,31.12
2019-04-21T16:09:44.003Z,31.22
2019-04-21T16:11:37.908Z,30.93
2019-04-21T16:12:37.905Z,31.41
2019-04-21T16:14:29.914Z,30.93
2019-04-21T16:15:30.351Z,31.12
2019-04-21T16:17:23.525Z,31.70
2019-04-21T16:18:24.396Z,32.38
2019-04-21T16:20:17.536Z,31.41
2019-04-21T16:21:16.073Z,31.31
2019-04-21T16:23:10.589Z,32.57
2019-04-21T16:24:09.141Z,32.47
2019-04-21T16:26:02.616Z,32.18
2019-04-21T16:27:05.288Z,32.38
2019-04-21T16:28:55.735Z,33.15
2019-04-21T16:29:55.880Z,33.15
2019-04-21T16:31:49.126Z,32.76
2019-04-21T16:32:49.890Z,32.18
2019-04-21T16:34:49.785Z,32.36
2019-04-21T16:35:42.019Z,32.17
2019-04-21T16:37:35.424Z,32.86
2019-04-21T16:38:35.482Z,32.17
2019-04-21T16:40:40.785Z,32.46
2019-04-21T16:41:28.668Z,31.30
2019-04-21T16:43:21.068Z,32.07
2019-04-21T16:44:21.105Z,31.78
2019-04-21T16:46:14.104Z,32.94
2019-04-21T16:47:14.167Z,33.14
2019-04-21T16:49:07.511Z,33.33
2019-04-21T16:50:07.793Z,33.14
2019-04-21T16:52:00.292Z,34.29
2019-04-21T16:53:01.691Z,34.39
2019-04-21T16:54:53.800Z,33.52
2019-04-21T16:55:53.377Z,32.84
2019-04-21T16:57:58.398Z,33.62
2019-04-21T16:58:46.434Z,34.20
2019-04-21T17:00:44.844Z,34.20
2019-04-21T17:01:40.688Z,34.68
2019-04-21T17:03:32.742Z,34.58
2019-04-21T17:04:33.737Z,34.39
2019-04-21T17:06:26.917Z,34.10
2019-04-21T17:07:26.275Z,34.29
2019-04-21T17:09:18.843Z,35.45
2019-04-21T17:10:18.697Z,35.05
2019-04-21T17:12:14.244Z,35.14
2019-04-21T17:13:11.764Z,35.72
2019-04-21T17:15:21.414Z,35.72
2019-04-21T17:16:29.880Z,36.01
2019-04-21T17:18:17.933Z,35.05
2019-04-21T17:19:08.786Z,35.44
2019-04-21T17:20:56.186Z,35.53
2019-04-21T17:21:52.112Z,34.56
2019-04-21T17:23:44.263Z,35.05
2019-04-21T17:24:44.396Z,34.86
2019-04-21T17:26:39.400Z,34.86
2019-04-21T17:27:37.063Z,34.86
2019-04-21T17:29:30.479Z,35.22
2019-04-21T17:30:30.594Z,35.13
2019-04-21T17:32:25.053Z,35.32
2019-04-21T17:33:26.893Z,35.03
2019-04-21T17:35:16.685Z,35.61
2019-04-21T17:36:16.812Z,35.90
2019-04-21T17:38:09.959Z,36.38
2019-04-21T17:39:10.967Z,35.61
2019-04-21T17:41:14.170Z,35.61
2019-04-21T17:42:14.236Z,35.71
2019-04-21T17:43:56.201Z,35.32
2019-04-21T17:44:55.439Z,35.71
2019-04-21T17:46:54.487Z,35.71
2019-04-21T17:47:54.427Z,35.59
2019-04-21T17:49:41.521Z,35.59
2019-04-21T17:50:41.552Z,36.17
2019-04-21T17:52:38.847Z,36.07
2019-04-21T17:53:41.415Z,35.30
2019-04-21T17:55:31.290Z,35.50
2019-04-21T17:56:55.107Z,35.50
2019-04-21T17:58:34.139Z,35.10
2019-04-21T17:59:54.944Z,35.38
2019-04-21T18:01:40.836Z,34.80
2019-04-21T18:02:38.586Z,35.10
2019-04-21T18:04:24.367Z,35.19
2019-04-21T18:05:29.063Z,35.58
2019-04-21T18:07:15.204Z,35.86
2019-04-21T18:08:21.473Z,36.35
2019-04-21T18:10:08.734Z,36.63
2019-04-21T18:11:03.436Z,37.39
2019-04-21T18:12:57.253Z,39.03
2019-04-21T18:13:47.234Z,39.51
2019-04-21T18:15:53.443Z,39.12
2019-04-21T18:16:42.777Z,39.51
2019-04-21T18:18:32.903Z,39.79
2019-04-21T18:19:36.362Z,40.19
2019-04-21T18:21:25.144Z,40.84
2019-04-21T18:22:34.715Z,41.51
2019-04-21T18:24:22.583Z,42.09
2019-04-21T18:25:30.740Z,42.28
2019-04-21T18:27:11.480Z,44.11
2019-04-21T18:28:12.460Z,44.89
2019-04-21T18:30:04.480Z,46.91
2019-04-21T18:31:04.712Z,46.81
2019-04-21T18:32:59.974Z,46.78
2019-04-21T18:34:04.417Z,44.96
2019-04-21T18:35:55.090Z,44.57
2019-04-21T18:36:54.190Z,44.67
2019-04-21T18:39:06.892Z,45.53
2019-04-21T18:39:55.879Z,47.65
2019-04-21T18:41:42.760Z,45.92
2019-04-21T18:43:05.643Z,45.63
2019-04-21T18:45:06.367Z,46.21
2019-04-21T18:47:40.478Z,45.61
2019-04-21T18:48:34.452Z,45.32
2019-04-21T18:50:18.559Z,45.99
2019-04-21T18:51:20.906Z,46.57
2019-04-21T18:53:24.499Z,46.57
2019-04-21T18:54:33.671Z,46.19
2019-04-21T18:56:06.518Z,47.24
2019-04-21T18:57:13.621Z,48.69
2019-04-21T18:58:56.496Z,47.15
2019-04-21T18:59:57.385Z,48.76
2019-04-21T19:01:55.178Z,48.66
2019-04-21T19:02:54.211Z,48.88
2019-04-21T19:04:44.950Z,49.15
2019-04-21T19:05:50.114Z,47.80
2019-04-21T19:07:55.859Z,49.05
2019-04-21T19:08:59.257Z,48.85
2019-04-21T19:10:48.565Z,50.40
2019-04-21T19:11:50.218Z,51.17
2019-04-21T19:13:51.335Z,50.37
2019-04-21T19:14:40.029Z,49.79
2019-04-21T19:20:29.466Z,49.99
2019-04-21T19:22:16.999Z,49.79
2019-04-21T19:23:21.554Z,49.99
2019-04-21T19:25:16.404Z,50.56
2019-04-21T19:26:25.321Z,50.27
2019-04-21T19:28:06.400Z,50.76
2019-04-21T19:29:11.335Z,51.14
2019-04-21T19:31:04.423Z,50.76
2019-04-21T19:32:01.814Z,50.85
2019-04-21T19:33:45.550Z,51.23
2019-04-21T19:34:40.360Z,51.53
2019-04-21T19:36:29.536Z,51.81
2019-04-21T19:37:29.835Z,52.17
2019-04-21T19:39:37.734Z,52.08
2019-04-21T19:40:37.008Z,51.98
2019-04-21T19:42:25.792Z,52.84
2019-04-21T19:43:35.825Z,52.84
2019-04-21T19:45:25.566Z,52.36
2019-04-21T19:46:18.004Z,52.36
2019-04-21T19:48:18.117Z,52.84
2019-04-21T19:49:21.158Z,53.23